Time;durP1;ratioP1;P1;durP2;ratioP2;P2;SDS_P1;SDS_P2;PMS_P1;PMS_P2;Temp;Humidity;BMP_temperature;BMP_pressure;BME280_temperature;BME280_humidity;BME280_pressure;Samples;Min_cycle;Max_cycle;Signal;HPM_P1;HPM_P2
2022/06/24 00:02:12;;;;;;;6.10;3.93;;;23.50;99.90;;;;;;5057730;28;20459;-77
2022/06/24 00:04:39;;;;;;;11.73;4.27;;;23.60;99.90;;;;;;5059350;28;20468;-78
2022/06/24 00:07:15;;;;;;;8.70;4.77;;;23.60;99.90;;;;;;5056051;28;20486;-76
2022/06/24 00:12:16;;;;;;;7.40;5.07;;;23.60;99.90;;;;;;5079460;22;20588;-84
2022/06/24 00:14:45;;;;;;;9.23;5.00;;;23.70;99.90;;;;;;5073493;28;20410;-82
2022/06/24 00:17:12;;;;;;;8.33;5.37;;;23.70;99.90;;;;;;5073121;28;20465;-83
2022/06/24 00:20:00;;;;;;;8.40;4.30;;;23.70;99.90;;;;;;5073401;28;20884;-83
2022/06/24 00:22:28;;;;;;;7.30;3.80;;;23.80;99.90;;;;;;5053032;28;20402;-84
2022/06/24 00:25:12;;;;;;;4.60;3.93;;;23.80;99.90;;;;;;5052919;28;20407;-83
2022/06/24 00:27:39;;;;;;;6.77;4.20;;;23.90;99.90;;;;;;5052611;28;20398;-84
2022/06/24 00:30:12;;;;;;;7.63;4.37;;;23.90;99.90;;;;;;5053090;28;20799;-83
2022/06/24 00:32:38;;;;;;;7.40;4.47;;;23.90;99.90;;;;;;5052541;28;20422;-82
2022/06/24 00:35:14;;;;;;;8.13;3.97;;;23.50;99.90;;;;;;5052566;28;20410;-84
2022/06/24 00:37:41;;;;;;;7.83;4.67;;;23.10;99.90;;;;;;5057986;28;20464;-82
2022/06/24 00:40:09;;;;;;;10.50;4.37;;;22.80;99.90;;;;;;5037349;28;20437;-83
2022/06/24 00:42:40;;;;;;;6.80;5.33;;;22.50;99.90;;;;;;5055480;28;20411;-82
2022/06/24 00:45:09;;;;;;;12.80;6.00;;;22.20;99.90;;;;;;5055511;28;20419;-81
2022/06/24 00:47:37;;;;;;;8.40;5.23;;;22.10;99.90;;;;;;5054867;28;20418;-81
2022/06/24 00:50:16;;;;;;;9.50;6.03;;;21.90;99.90;;;;;;5054938;28;20458;-81
2022/06/24 00:52:44;;;;;;;10.23;6.57;;;21.70;99.90;;;;;;5055173;28;20576;-81
2022/06/24 00:55:09;;;;;;;13.53;6.10;;;21.50;99.90;;;;;;5054682;28;20406;-82
2022/06/24 00:57:36;;;;;;;8.00;5.40;;;21.40;99.90;;;;;;5055067;28;20480;-81
2022/06/24 01:00:03;;;;;;;9.83;6.20;;;21.20;99.90;;;;;;5037720;28;20199;-82
2022/06/24 01:02:30;;;;;;;7.80;5.23;;;21.10;99.90;;;;;;5055138;28;20414;-82
2022/06/24 01:05:06;;;;;;;11.80;5.90;;;21.00;99.90;;;;;;5055000;28;20414;-81
2022/06/24 01:07:37;;;;;;;12.80;6.23;;;20.90;99.90;;;;;;5036758;28;20563;-81
2022/06/24 01:10:03;;;;;;;11.60;6.53;;;20.80;99.90;;;;;;5053224;28;20437;-81
2022/06/24 01:12:31;;;;;;;12.40;6.57;;;20.90;99.90;;;;;;5053228;28;20909;-82
2022/06/24 01:14:57;;;;;;;11.33;6.60;;;20.80;99.90;;;;;;5053229;28;20414;-82
2022/06/24 01:17:22;;;;;;;12.27;7.70;;;20.80;99.90;;;;;;5053547;28;20461;-81
2022/06/24 01:19:48;;;;;;;10.07;7.40;;;20.80;99.90;;;;;;5053637;28;20699;-81
2022/06/24 01:22:28;;;;;;;9.23;7.37;;;20.80;99.90;;;;;;5035954;28;20531;-81
2022/06/24 01:24:54;;;;;;;10.57;6.60;;;20.80;99.90;;;;;;5035621;28;20233;-81
2022/06/24 01:27:20;;;;;;;9.80;6.50;;;20.70;99.90;;;;;;5053448;28;20786;-82
2022/06/24 01:29:46;;;;;;;12.60;6.97;;;20.60;99.90;;;;;;5052472;28;20414;-82
2022/06/24 01:32:12;;;;;;;7.87;5.77;;;20.70;99.90;;;;;;5034966;28;20434;-83
2022/06/24 01:34:38;;;;;;;9.80;6.40;;;20.60;99.90;;;;;;5055211;28;20422;-83
2022/06/24 01:37:04;;;;;;;10.30;5.77;;;20.60;99.90;;;;;;5056520;28;20460;-83
2022/06/24 01:39:31;;;;;;;6.50;5.13;;;20.80;99.90;;;;;;5056991;28;20440;-83
2022/06/24 01:41:57;;;;;;;7.10;4.87;;;20.80;99.90;;;;;;5038686;28;20456;-83
2022/06/24 01:44:23;;;;;;;8.30;4.90;;;20.60;99.90;;;;;;5056699;28;20507;-83
2022/06/24 01:46:50;;;;;;;9.40;5.20;;;20.60;99.90;;;;;;5056210;28;21134;-83
2022/06/24 01:49:16;;;;;;;8.47;4.80;;;20.50;99.90;;;;;;5056832;28;20417;-82
2022/06/24 01:51:44;;;;;;;8.77;5.07;;;20.40;99.90;;;;;;5056718;28;20477;-82
2022/06/24 01:54:10;;;;;;;5.90;4.20;;;20.30;99.90;;;;;;5056335;28;20434;-83
2022/06/24 01:56:36;;;;;;;7.20;4.00;;;20.30;99.90;;;;;;5056049;28;20905;-83
2022/06/24 01:59:02;;;;;;;6.70;4.20;;;20.20;99.90;;;;;;5056260;28;20436;-82
2022/06/24 02:01:28;;;;;;;7.20;4.73;;;20.10;99.90;;;;;;5056132;28;20571;-83
2022/06/24 02:03:54;;;;;;;4.10;3.23;;;20.10;99.90;;;;;;5056358;28;20402;-83
2022/06/24 02:06:19;;;;;;;5.47;3.60;;;20.00;99.90;;;;;;5038060;28;20183;-83
2022/06/24 02:08:45;;;;;;;6.27;3.97;;;20.00;99.90;;;;;;5056196;28;20176;-83
2022/06/24 02:14:01;;;;;;;8.27;4.70;;;19.90;99.90;;;;;;5056458;28;20762;-83
2022/06/24 02:16:27;;;;;;;5.60;4.73;;;19.80;99.90;;;;;;5055359;28;20414;-82
2022/06/24 02:18:55;;;;;;;8.00;4.47;;;19.80;99.90;;;;;;5037941;28;20461;-83
2022/06/24 02:21:22;;;;;;;6.80;3.90;;;19.80;99.90;;;;;;5055917;28;20249;-83
2022/06/24 02:23:48;;;;;;;7.07;4.03;;;19.90;99.90;;;;;;5055570;28;20407;-84
2022/06/24 02:26:13;;;;;;;6.10;4.33;;;19.90;99.90;;;;;;5055469;28;20411;-82
2022/06/24 02:28:39;;;;;;;5.57;4.17;;;19.80;99.90;;;;;;5055540;28;20420;-84
2022/06/24 02:31:06;;;;;;;7.20;4.60;;;19.80;99.90;;;;;;5037663;28;20196;-82
2022/06/24 02:33:32;;;;;;;6.20;4.67;;;19.90;99.90;;;;;;5055673;28;20180;-82
2022/06/24 02:35:58;;;;;;;5.93;4.00;;;19.80;99.90;;;;;;5056305;28;20418;-82
2022/06/24 02:38:24;;;;;;;5.23;3.83;;;19.80;99.90;;;;;;5038405;28;20465;-81
2022/06/24 02:40:51;;;;;;;6.77;4.90;;;19.80;99.90;;;;;;5055410;28;20274;-82
2022/06/24 02:43:24;;;;;;;7.47;4.63;;;19.90;99.90;;;;;;5055146;28;20418;-82
2022/06/24 02:45:51;;;;;;;6.93;4.30;;;19.90;99.90;;;;;;5054080;28;20417;-83
2022/06/24 02:48:18;;;;;;;6.83;4.50;;;20.00;99.90;;;;;;5054927;28;20410;-83
2022/06/24 02:50:49;;;;;;;7.73;4.63;;;20.10;99.90;;;;;;5037284;28;20430;-83
2022/06/24 02:53:16;;;;;;;5.60;4.57;;;20.10;99.90;;;;;;5054899;28;20399;-83
2022/06/24 02:55:42;;;;;;;9.73;5.83;;;20.10;99.90;;;;;;5054589;28;20421;-82
2022/06/24 02:58:08;;;;;;;8.53;5.17;;;20.20;99.90;;;;;;5054730;28;20495;-83
2022/06/24 03:00:34;;;;;;;7.77;5.63;;;20.30;99.90;;;;;;5054354;28;20437;-81
2022/06/24 03:03:00;;;;;;;10.83;4.60;;;20.30;99.90;;;;;;5054298;28;20180;-82
2022/06/24 03:05:26;;;;;;;7.53;4.13;;;20.40;99.90;;;;;;5054428;28;20254;-82
2022/06/24 03:07:53;;;;;;;6.00;4.30;;;20.40;99.90;;;;;;5053928;28;20183;-82
2022/06/24 03:10:19;;;;;;;5.47;4.13;;;20.40;99.90;;;;;;5054042;28;20541;-82
2022/06/24 03:12:44;;;;;;;7.33;4.27;;;20.40;99.90;;;;;;5054201;28;20418;-82
2022/06/24 03:15:10;;;;;;;6.17;5.30;;;20.40;99.90;;;;;;5053763;28;20681;-82
2022/06/24 03:17:37;;;;;;;9.13;4.93;;;20.50;99.90;;;;;;5035966;28;20253;-82
2022/06/24 03:20:05;;;;;;;5.40;4.13;;;20.50;99.90;;;;;;5053935;28;20444;-82
2022/06/24 03:22:30;;;;;;;5.47;4.40;;;20.50;99.90;;;;;;5036256;28;20429;-82
2022/06/24 03:24:56;;;;;;;6.70;6.00;;;20.50;99.90;;;;;;5053920;28;20410;-84
2022/06/24 03:27:21;;;;;;;7.53;5.93;;;20.50;99.90;;;;;;5053161;28;20206;-82
2022/06/24 03:29:47;;;;;;;7.27;5.07;;;20.60;99.90;;;;;;5035613;28;20305;-83
2022/06/24 03:32:13;;;;;;;7.30;5.33;;;20.60;99.90;;;;;;5035200;28;20183;-83
2022/06/24 03:34:39;;;;;;;6.50;5.73;;;20.60;99.90;;;;;;5034979;28;20616;-82
2022/06/24 03:37:04;;;;;;;7.63;5.43;;;20.70;99.90;;;;;;5052313;28;20198;-82
2022/06/24 03:39:30;;;;;;;8.93;5.87;;;20.60;99.90;;;;;;5052692;28;20659;-82
2022/06/24 03:41:56;;;;;;;7.03;4.93;;;20.70;99.90;;;;;;5052478;28;20196;-82
2022/06/24 03:44:21;;;;;;;6.17;4.93;;;20.70;99.90;;;;;;5052640;28;20221;-82
2022/06/24 03:46:47;;;;;;;8.03;5.30;;;20.80;99.90;;;;;;5052217;28;20647;-82
2022/06/24 03:49:12;;;;;;;7.97;6.07;;;20.90;99.90;;;;;;5052413;28;20174;-83
2022/06/24 03:51:38;;;;;;;6.03;4.57;;;20.90;99.90;;;;;;5052492;28;20915;-82
2022/06/24 03:54:03;;;;;;;6.30;4.73;;;20.90;99.90;;;;;;5052502;28;20179;-82
2022/06/24 03:56:29;;;;;;;6.80;5.37;;;20.90;99.90;;;;;;5051847;28;20255;-82
2022/06/24 03:58:55;;;;;;;6.93;5.53;;;20.90;99.90;;;;;;5051747;28;20203;-82
2022/06/24 04:01:20;;;;;;;9.80;5.90;;;21.00;99.90;;;;;;5052380;28;20292;-82
2022/06/24 04:03:46;;;;;;;6.23;4.00;;;20.90;99.90;;;;;;5052190;28;20176;-82
2022/06/24 04:06:11;;;;;;;7.03;5.07;;;21.00;99.90;;;;;;5051987;28;20650;-82
2022/06/24 04:08:37;;;;;;;6.60;5.07;;;21.00;99.90;;;;;;5052270;28;20231;-82
2022/06/24 04:11:12;;;;;;;8.50;5.07;;;21.00;99.90;;;;;;5052022;28;20247;-82
2022/06/24 04:13:38;;;;;;;5.63;4.90;;;21.10;99.90;;;;;;5052083;28;20179;-82
2022/06/24 04:16:04;;;;;;;7.80;4.83;;;21.10;99.90;;;;;;5051742;28;20533;-82
2022/06/24 04:18:30;;;;;;;5.60;4.60;;;21.10;99.90;;;;;;5052053;28;20486;-82
2022/06/24 04:20:56;;;;;;;6.17;4.90;;;21.10;99.90;;;;;;5051955;28;20469;-82
2022/06/24 04:23:22;;;;;;;7.37;5.30;;;21.10;99.90;;;;;;5034323;28;20834;-82
2022/06/24 04:25:48;;;;;;;7.40;5.27;;;21.20;99.90;;;;;;5052949;28;20175;-82
2022/06/24 04:28:14;;;;;;;8.77;5.93;;;21.20;99.90;;;;;;5053096;28;20178;-84
2022/06/24 04:30:39;;;;;;;6.57;5.60;;;21.20;99.90;;;;;;5052896;28;20430;-82
2022/06/24 04:33:05;;;;;;;11.87;5.73;;;21.20;99.90;;;;;;5052898;28;20183;-82
2022/06/24 04:35:31;;;;;;;7.77;5.00;;;21.20;99.90;;;;;;5052540;28;20616;-82
2022/06/24 04:37:56;;;;;;;8.00;6.13;;;21.20;99.90;;;;;;5052213;28;20231;-82
2022/06/24 04:40:22;;;;;;;6.03;4.83;;;21.20;99.90;;;;;;5052791;28;20658;-82
2022/06/24 04:42:48;;;;;;;6.93;4.80;;;21.20;99.90;;;;;;5052759;28;20172;-82
2022/06/24 04:45:14;;;;;;;9.00;4.70;;;21.20;99.90;;;;;;5052777;28;20406;-82
2022/06/24 04:47:39;;;;;;;9.80;5.20;;;21.20;99.90;;;;;;5051823;28;20176;-82
2022/06/24 04:50:07;;;;;;;7.10;6.03;;;21.00;99.90;;;;;;5034572;28;20802;-82
2022/06/24 04:52:33;;;;;;;7.10;5.60;;;20.90;99.90;;;;;;5052352;28;20278;-82
2022/06/24 04:55:00;;;;;;;7.30;4.90;;;20.90;99.90;;;;;;5052115;28;20539;-82
2022/06/24 04:57:25;;;;;;;8.33;4.83;;;20.80;99.90;;;;;;5051938;28;20461;-82
2022/06/24 04:59:51;;;;;;;7.50;5.43;;;20.80;99.90;;;;;;5034630;28;20948;-82
2022/06/24 05:02:16;;;;;;;6.73;5.03;;;20.80;99.90;;;;;;5052451;28;20218;-82
2022/06/24 05:04:42;;;;;;;7.13;5.93;;;20.80;99.90;;;;;;5052155;28;20932;-82
2022/06/24 05:07:08;;;;;;;7.57;5.27;;;20.80;99.90;;;;;;5051786;28;20179;-82
2022/06/24 05:09:34;;;;;;;5.83;4.83;;;20.80;99.90;;;;;;5054766;28;20211;-82
2022/06/24 05:12:00;;;;;;;6.40;5.40;;;20.70;99.90;;;;;;5055794;28;20450;-82
2022/06/24 05:14:26;;;;;;;7.40;5.70;;;20.70;99.90;;;;;;5055902;28;20414;-82
2022/06/24 05:16:52;;;;;;;7.60;5.70;;;20.60;99.90;;;;;;5055661;28;20756;-82
2022/06/24 05:19:17;;;;;;;6.30;5.40;;;20.60;99.90;;;;;;5055815;28;20468;-82
2022/06/24 05:21:43;;;;;;;11.23;5.80;;;20.60;99.90;;;;;;5055811;28;20274;-82
2022/06/24 05:24:09;;;;;;;8.17;4.63;;;20.70;99.90;;;;;;5055618;28;20678;-82
2022/06/24 05:26:34;;;;;;;7.30;4.80;;;20.70;99.90;;;;;;5055506;28;20547;-82
2022/06/24 05:29:00;;;;;;;6.17;5.20;;;20.80;99.90;;;;;;5055449;28;20723;-82
2022/06/24 05:31:26;;;;;;;6.77;4.53;;;20.90;99.90;;;;;;5055389;28;20206;-82
2022/06/24 05:33:54;;;;;;;8.50;5.67;;;20.90;99.90;;;;;;5055438;28;20180;-82
2022/06/24 05:36:20;;;;;;;8.50;5.00;;;21.00;99.90;;;;;;5037162;28;20533;-81
2022/06/24 05:38:46;;;;;;;7.33;5.27;;;21.10;99.90;;;;;;5055550;28;20457;-81
2022/06/24 05:41:12;;;;;;;5.00;4.40;;;21.10;99.90;;;;;;5037169;28;20297;-81
2022/06/24 05:43:38;;;;;;;7.70;4.80;;;21.20;99.90;;;;;;5055263;28;20418;-81
2022/06/24 05:46:04;;;;;;;8.70;6.90;;;21.20;99.90;;;;;;5054739;28;20904;-82
2022/06/24 05:48:30;;;;;;;10.60;6.83;;;21.20;99.90;;;;;;5055187;28;20226;-81
2022/06/24 05:50:59;;;;;;;8.83;4.97;;;21.20;99.90;;;;;;5055215;28;20565;-81
2022/06/24 05:56:08;;;;;;;9.00;6.30;;;21.30;99.90;;;;;;5054861;28;20401;-81
2022/06/24 05:58:34;;;;;;;5.57;4.73;;;21.40;99.90;;;;;;5055028;28;20449;-81
2022/06/24 06:01:10;;;;;;;7.40;6.03;;;21.60;99.90;;;;;;5054609;28;20200;-81
2022/06/24 06:03:36;;;;;;;8.63;5.77;;;21.60;99.90;;;;;;5054812;28;20185;-81
2022/06/24 06:06:02;;;;;;;6.97;5.50;;;21.70;99.90;;;;;;5036511;28;20418;-81
2022/06/24 06:08:28;;;;;;;7.83;4.87;;;21.80;99.90;;;;;;5054730;28;20556;-81
2022/06/24 06:13:21;;;;;;;8.50;4.67;;;21.90;99.90;;;;;;5031962;28;20231;-81
2022/06/24 06:15:47;;;;;;;6.30;4.73;;;22.00;99.90;;;;;;5035010;28;20995;-81
2022/06/24 06:18:13;;;;;;;7.83;5.23;;;22.00;99.90;;;;;;5035093;28;20207;-80
2022/06/24 06:20:38;;;;;;;7.00;5.63;;;22.10;99.90;;;;;;5016391;28;20248;-79
2022/06/24 06:23:04;;;;;;;11.07;6.00;;;22.10;99.90;;;;;;5034733;28;20271;-80
2022/06/24 06:25:31;;;;;;;7.87;5.23;;;22.20;99.90;;;;;;5017086;28;20176;-81
2022/06/24 06:27:57;;;;;;;7.40;5.40;;;22.20;99.90;;;;;;5034450;28;20422;-79
2022/06/24 06:30:22;;;;;;;6.23;5.20;;;22.30;99.90;;;;;;5016761;28;20506;-79
2022/06/24 06:32:48;;;;;;;7.43;5.07;;;22.30;99.90;;;;;;5016493;28;20473;-79
2022/06/24 06:35:14;;;;;;;5.43;4.60;;;22.30;99.90;;;;;;5034426;28;20180;-79
2022/06/24 06:37:39;;;;;;;6.90;4.80;;;22.30;99.90;;;;;;5033816;28;20211;-79
2022/06/24 06:40:05;;;;;;;7.40;4.47;;;22.30;99.90;;;;;;5016389;28;20181;-79
2022/06/24 06:42:31;;;;;;;5.97;5.03;;;22.30;99.90;;;;;;5034352;28;20203;-80
2022/06/24 06:44:57;;;;;;;5.17;4.60;;;22.30;99.90;;;;;;5035688;28;20411;-82
2022/06/24 06:47:23;;;;;;;10.43;4.73;;;22.40;99.90;;;;;;5035209;28;20179;-82
2022/06/24 06:49:48;;;;;;;5.20;4.00;;;22.40;99.90;;;;;;5017927;28;20922;-82
2022/06/24 06:52:14;;;;;;;5.90;4.53;;;22.50;99.90;;;;;;5035497;28;20192;-81
2022/06/24 06:54:40;;;;;;;6.80;4.80;;;22.60;99.90;;;;;;5035819;28;20173;-82
2022/06/24 06:57:06;;;;;;;6.03;4.33;;;22.70;99.90;;;;;;5035155;28;20232;-81
2022/06/24 06:59:31;;;;;;;6.73;4.70;;;22.70;99.90;;;;;;5035017;28;20485;-79
2022/06/24 07:01:57;;;;;;;5.70;4.07;;;22.50;99.90;;;;;;5035420;28;20219;-81
2022/06/24 07:04:22;;;;;;;5.40;3.50;;;22.40;99.90;;;;;;5017604;28;20184;-84
2022/06/24 07:06:49;;;;;;;8.77;5.77;;;22.20;99.90;;;;;;5017153;28;20246;-85
2022/06/24 07:09:15;;;;;;;4.93;2.90;;;22.10;99.90;;;;;;5019903;28;20208;-85
2022/06/24 07:11:40;;;;;;;3.87;1.90;;;22.00;99.90;;;;;;5036192;28;20442;-85
2022/06/24 07:14:06;;;;;;;3.90;2.13;;;21.50;99.90;;;;;;5035124;28;20584;-86
2022/06/24 07:16:32;;;;;;;4.20;2.37;;;20.90;99.90;;;;;;5033865;28;20494;-86
2022/06/24 07:18:57;;;;;;;6.20;2.60;;;20.30;99.90;;;;;;5016299;28;20341;-85
2022/06/24 07:21:23;;;;;;;4.07;2.80;;;20.10;99.90;;;;;;5015745;28;20196;-85
2022/06/24 07:23:48;;;;;;;8.30;3.30;;;19.90;99.90;;;;;;5015748;28;20268;-85
2022/06/24 07:26:14;;;;;;;5.97;5.03;;;19.80;99.90;;;;;;5016105;28;20177;-85
2022/06/24 07:28:40;;;;;;;10.70;5.93;;;19.70;99.90;;;;;;5012018;28;20242;-84
2022/06/24 07:31:16;;;;;;;13.00;4.70;;;19.70;99.90;;;;;;5025528;28;20605;-83
2022/06/24 07:33:42;;;;;;;7.93;4.70;;;19.70;99.90;;;;;;5009191;28;20189;-84
2022/06/24 07:36:07;;;;;;;6.60;4.87;;;19.60;99.90;;;;;;5011423;28;20516;-84
2022/06/24 07:38:33;;;;;;;7.03;4.60;;;19.60;99.90;;;;;;5014812;28;20207;-83
2022/06/24 07:40:58;;;;;;;5.87;4.27;;;19.60;99.90;;;;;;5015574;28;20554;-83
2022/06/24 07:43:24;;;;;;;6.07;4.23;;;19.50;99.90;;;;;;5031367;28;20177;-83
2022/06/24 07:45:52;;;;;;;7.83;4.57;;;19.50;99.90;;;;;;5032487;28;20177;-83
2022/06/24 07:48:17;;;;;;;5.53;4.20;;;19.40;99.90;;;;;;5016305;28;20184;-82
2022/06/24 07:50:43;;;;;;;6.37;4.90;;;19.50;99.90;;;;;;5015067;28;20837;-84
2022/06/24 07:53:09;;;;;;;7.23;4.43;;;19.50;99.90;;;;;;5031734;28;20223;-83
2022/06/24 07:58:19;;;;;;;7.90;5.47;;;19.70;99.90;;;;;;5032819;28;20226;-82
2022/06/24 08:00:44;;;;;;;6.17;4.67;;;19.70;99.90;;;;;;5031480;28;20790;-82
2022/06/24 08:03:10;;;;;;;8.60;6.10;;;19.60;99.90;;;;;;5031515;28;20202;-83
2022/06/24 08:05:36;;;;;;;8.50;5.80;;;19.60;99.90;;;;;;5014225;28;20192;-83
2022/06/24 08:08:02;;;;;;;9.63;5.90;;;19.70;99.90;;;;;;5001814;28;20181;-82
2022/06/24 08:10:28;;;;;;;8.30;5.93;;;19.80;99.90;;;;;;4994660;28;20212;-84
2022/06/24 08:12:54;;;;;;;6.77;5.10;;;19.80;99.90;;;;;;4994907;28;20472;-83
2022/06/24 08:15:20;;;;;;;10.00;5.53;;;19.80;99.90;;;;;;4995356;28;20427;-81
2022/06/24 08:17:45;;;;;;;6.73;5.70;;;20.00;99.90;;;;;;5029067;28;20255;-82
2022/06/24 08:20:11;;;;;;;7.37;6.57;;;20.10;99.90;;;;;;5013581;28;20243;-84
2022/06/24 08:22:37;;;;;;;9.27;6.37;;;20.20;99.90;;;;;;5014599;28;20211;-85
2022/06/24 08:25:03;;;;;;;10.40;6.50;;;20.30;99.90;;;;;;5014574;28;20411;-84
2022/06/24 08:27:29;;;;;;;8.90;6.40;;;20.40;99.90;;;;;;5013979;28;20180;-84
2022/06/24 08:29:54;;;;;;;9.60;6.73;;;20.40;99.90;;;;;;5012604;28;20773;-82
2022/06/24 08:32:20;;;;;;;9.10;6.80;;;20.50;99.90;;;;;;5014384;28;20599;-84
2022/06/24 08:34:45;;;;;;;8.33;6.57;;;20.50;99.90;;;;;;5016858;28;20215;-85
2022/06/24 08:37:11;;;;;;;8.93;6.40;;;20.60;99.90;;;;;;5033398;28;20681;-84
2022/06/24 08:39:37;;;;;;;8.67;6.60;;;20.70;99.90;;;;;;5032959;28;20180;-83
2022/06/24 08:42:04;;;;;;;7.47;6.00;;;20.70;99.90;;;;;;5015370;28;20211;-84
2022/06/24 08:44:30;;;;;;;7.60;5.60;;;20.70;99.90;;;;;;5015278;28;20631;-83
2022/06/24 08:46:55;;;;;;;7.80;5.77;;;20.80;99.90;;;;;;5015764;28;20415;-84
2022/06/24 08:49:21;;;;;;;9.30;6.23;;;20.70;99.90;;;;;;5016573;28;20184;-83
2022/06/24 08:51:49;;;;;;;6.00;5.20;;;20.70;99.90;;;;;;5034374;28;20246;-83
2022/06/24 08:54:17;;;;;;;8.40;6.03;;;20.70;99.90;;;;;;5015437;28;20184;-85
2022/06/24 08:56:43;;;;;;;7.57;5.63;;;20.80;99.90;;;;;;5015147;28;20835;-83
2022/06/24 08:59:09;;;;;;;7.80;5.63;;;20.80;99.90;;;;;;5016323;28;20439;-84
2022/06/24 09:01:41;;;;;;;7.33;5.50;;;20.80;99.90;;;;;;5015339;28;20224;-84
2022/06/24 09:04:09;;;;;;;7.60;6.53;;;20.90;99.90;;;;;;5015019;28;20172;-83
2022/06/24 09:06:39;;;;;;;7.57;5.20;;;20.80;99.90;;;;;;5014341;28;20797;-83
2022/06/24 09:09:05;;;;;;;6.27;5.67;;;20.80;99.90;;;;;;5014411;28;20441;-84
2022/06/24 09:11:42;;;;;;;8.40;5.40;;;20.70;99.90;;;;;;5028649;28;20502;-85
2022/06/24 09:14:08;;;;;;;9.70;6.40;;;20.60;99.90;;;;;;4995009;28;20424;-84
2022/06/24 09:16:37;;;;;;;8.20;5.90;;;20.70;99.90;;;;;;5012314;28;20466;-84
2022/06/24 09:19:05;;;;;;;6.87;5.60;;;20.90;99.90;;;;;;4993254;28;20463;-85
2022/06/24 09:21:39;;;;;;;8.70;6.80;;;21.00;99.90;;;;;;5010479;28;20447;-85
2022/06/24 09:24:05;;;;;;;11.10;6.70;;;21.20;99.90;;;;;;5013911;28;20414;-84
2022/06/24 09:26:35;;;;;;;8.30;5.90;;;21.30;99.90;;;;;;5013539;28;20423;-84
2022/06/24 09:29:03;;;;;;;8.33;6.30;;;21.70;99.90;;;;;;5013578;28;20942;-84
2022/06/24 09:31:31;;;;;;;6.93;5.60;;;22.00;99.90;;;;;;5018297;23;21093;-79
2022/06/24 09:34:06;;;;;;;8.13;5.37;;;22.10;99.90;;;;;;4998602;28;20516;-79
2022/06/24 09:36:34;;;;;;;8.13;6.23;;;22.30;99.90;;;;;;4992501;28;20455;-78
2022/06/24 09:39:09;;;;;;;7.10;5.90;;;22.70;99.90;;;;;;4992090;28;20461;-78
2022/06/24 09:41:46;;;;;;;7.77;5.73;;;23.20;99.90;;;;;;4992334;28;20517;-79
2022/06/24 09:44:13;;;;;;;5.90;5.13;;;23.70;99.90;;;;;;4993416;28;20427;-78
2022/06/24 09:46:39;;;;;;;8.60;6.50;;;24.20;99.90;;;;;;4992519;28;20548;-79
2022/06/24 09:49:12;;;;;;;7.07;5.37;;;24.80;99.90;;;;;;4992236;28;20428;-78
2022/06/24 09:51:39;;;;;;;8.33;4.63;;;27.90;99.90;;;;;;4992296;28;20428;-78
2022/06/24 09:54:08;;;;;;;6.90;4.20;;;28.70;99.90;;;;;;4992037;28;20459;-78
2022/06/24 09:56:35;;;;;;;6.50;4.83;;;29.70;99.90;;;;;;4994148;28;20974;-77
2022/06/24 10:01:47;;;;;;;5.10;3.63;;;31.50;99.90;;;;;;4997016;28;20412;-79
2022/06/24 10:04:15;;;;;;;4.97;3.67;;;33.10;99.90;;;;;;4996906;28;20453;-78
2022/06/24 10:06:49;;;;;;;5.03;4.13;;;34.10;99.90;;;;;;4996056;28;20447;-79
2022/06/24 10:09:22;;;;;;;5.57;4.07;;;33.80;99.90;;;;;;4996667;28;20491;-78
2022/06/24 10:11:49;;;;;;;5.20;3.60;;;33.20;99.90;;;;;;4996554;28;20418;-78
2022/06/24 10:14:15;;;;;;;5.60;3.80;;;32.80;99.90;;;;;;4996470;28;20412;-79
2022/06/24 10:16:43;;;;;;;5.10;3.70;;;33.70;99.90;;;;;;4996406;28;20512;-78
2022/06/24 10:19:12;;;;;;;4.53;3.70;;;33.20;99.90;;;;;;4996599;28;20302;-78
2022/06/24 10:21:39;;;;;;;6.23;3.60;;;31.70;99.90;;;;;;4996209;28;20556;-77
2022/06/24 10:24:13;;;;;;;8.13;4.10;;;30.20;99.90;;;;;;4997033;28;21086;-78
2022/06/24 10:26:39;;;;;;;4.30;3.90;;;30.20;99.90;;;;;;4995329;28;20444;-78
2022/06/24 10:29:05;;;;;;;9.67;3.87;;;31.60;99.90;;;;;;4996293;28;20417;-78
2022/06/24 10:31:50;;;;;;;4.90;3.40;;;32.00;99.90;;;;;;4995796;28;20452;-78
2022/06/24 10:34:28;;;;;;;6.07;3.67;;;32.30;99.90;;;;;;4997212;28;20200;-78
2022/06/24 10:36:58;;;;;;;5.07;3.70;;;32.40;99.90;;;;;;4995155;28;20433;-78
2022/06/24 10:39:29;;;;;;;5.67;3.23;;;32.20;99.90;;;;;;4995678;28;20428;-79
2022/06/24 10:42:10;;;;;;;4.87;3.90;;;32.40;99.90;;;;;;4995116;28;20432;-78
2022/06/24 10:44:37;;;;;;;4.10;3.53;;;32.50;99.90;;;;;;4994929;28;20413;-78
2022/06/24 10:47:12;;;;;;;4.73;3.50;;;32.90;99.90;;;;;;4994381;28;20440;-78
2022/06/24 10:49:56;;;;;;;4.33;3.23;;;33.70;99.90;;;;;;4994675;28;20443;-78
2022/06/24 10:53:00;;;;;;;5.03;3.77;;;33.40;99.90;;;;;;4994589;28;20467;-77
2022/06/24 10:57:56;;;;;;;5.10;3.50;;;30.90;99.90;;;;;;4995557;28;20532;-78
2022/06/24 11:00:39;;;;;;;5.27;3.80;;;29.70;99.90;;;;;;4994252;28;20928;-78
2022/06/24 11:03:04;;;;;;;5.70;4.27;;;28.90;99.90;;;;;;4993976;28;20467;-77
2022/06/24 11:05:33;;;;;;;7.00;3.60;;;28.00;99.90;;;;;;4993654;28;20421;-78
2022/06/24 11:08:00;;;;;;;4.20;3.27;;;28.00;99.90;;;;;;4993144;28;20197;-78
2022/06/24 11:10:31;;;;;;;4.73;3.83;;;28.20;99.90;;;;;;4993723;28;20425;-78
2022/06/24 11:12:59;;;;;;;4.33;3.83;;;28.10;99.90;;;;;;4993981;28;20940;-77
2022/06/24 11:15:36;;;;;;;5.07;4.20;;;27.60;99.90;;;;;;4993569;28;20499;-78
2022/06/24 11:18:11;;;;;;;5.53;4.40;;;26.90;99.90;;;;;;4993310;28;20836;-78
2022/06/24 11:20:49;;;;;;;5.73;5.13;;;26.10;99.90;;;;;;4993516;28;20443;-78
2022/06/24 11:23:17;;;;;;;7.53;5.50;;;25.70;99.90;;;;;;4993350;28;20433;-77
2022/06/24 11:26:14;;;;;;;5.60;4.90;;;24.90;99.90;;;;;;4993975;28;20424;-77
2022/06/24 11:28:50;;;;;;;7.53;6.80;;;;;;;;;;4992636;28;20428;-78
2022/06/24 11:31:22;;;;;;;8.73;7.37;;;23.50;99.90;;;;;;4993902;28;20447;-77
2022/06/24 11:34:09;;;;;;;9.40;7.03;;;23.40;99.90;;;;;;4994470;28;20421;-78
2022/06/24 11:36:37;;;;;;;8.20;6.87;;;23.40;99.90;;;;;;4993804;28;20452;-77
2022/06/24 11:39:09;;;;;;;7.47;6.70;;;23.40;99.90;;;;;;4993827;28;20547;-77
2022/06/24 11:41:36;;;;;;;9.93;7.30;;;23.60;99.90;;;;;;4993602;28;20428;-78
2022/06/24 11:44:02;;;;;;;7.53;6.83;;;24.00;99.90;;;;;;4993196;28;20421;-78
2022/06/24 11:46:28;;;;;;;7.90;7.10;;;24.50;99.90;;;;;;4993011;28;20429;-78
2022/06/24 11:49:08;;;;;;;6.67;5.93;;;25.10;99.90;;;;;;4993010;28;20429;-77
2022/06/24 11:51:34;;;;;;;7.23;5.97;;;25.30;99.90;;;;;;4993323;28;20425;-77
2022/06/24 11:54:02;;;;;;;6.50;5.80;;;25.40;99.90;;;;;;4992983;28;20512;-77
2022/06/24 11:56:31;;;;;;;5.63;3.30;;;25.20;99.90;;;;;;4992481;28;20304;-77
2022/06/24 11:58:59;;;;;;;4.13;3.73;;;25.00;99.90;;;;;;4992620;28;20464;-77
2022/06/24 12:01:27;;;;;;;4.60;3.73;;;24.90;99.90;;;;;;4992802;28;20468;-77
2022/06/24 12:03:56;;;;;;;5.07;3.70;;;25.70;99.90;;;;;;4992606;28;20793;-77
2022/06/24 12:06:23;;;;;;;5.40;4.30;;;26.40;99.90;;;;;;4992135;28;20568;-77
2022/06/24 12:08:51;;;;;;;5.67;3.63;;;26.70;99.90;;;;;;5008808;28;20428;-77
2022/06/24 12:11:19;;;;;;;7.60;3.30;;;26.80;99.90;;;;;;4992462;28;20421;-78
2022/06/24 12:14:15;;;;;;;6.07;3.77;;;26.90;99.90;;;;;;5031321;23;20508;-81
2022/06/24 12:17:02;;;;;;;8.80;3.97;;;26.70;99.90;;;;;;5020288;28;20447;-80
2022/06/24 12:19:31;;;;;;;4.00;3.50;;;26.40;99.90;;;;;;5034890;28;20435;-80
2022/06/24 12:22:12;;;;;;;4.63;3.77;;;26.60;99.90;;;;;;5034761;28;20419;-80
2022/06/24 12:24:39;;;;;;;6.70;4.63;;;27.00;99.90;;;;;;5033418;28;20434;-80
2022/06/24 12:27:06;;;;;;;4.97;3.50;;;27.00;99.90;;;;;;5028370;28;20462;-81
2022/06/24 12:29:35;;;;;;;5.38;4.10;;;27.30;99.90;;;;;;5012381;28;20429;-81
2022/06/24 12:32:03;;;;;;;5.43;3.80;;;27.50;99.90;;;;;;5013666;28;20708;-81
2022/06/24 12:34:37;;;;;;;5.50;3.93;;;27.90;99.90;;;;;;5005220;28;20428;-78
2022/06/24 12:37:08;;;;;;;5.73;3.90;;;27.90;99.90;;;;;;5009965;28;21031;-78
2022/06/24 12:39:39;;;;;;;6.63;3.87;;;28.00;99.90;;;;;;5012672;28;20427;-78
2022/06/24 12:42:06;;;;;;;4.70;3.10;;;28.30;99.90;;;;;;5008295;28;20440;-79
2022/06/24 12:44:44;;;;;;;4.70;3.50;;;28.60;99.90;;;;;;5008226;28;20425;-79
2022/06/24 12:53:07;;;;;;;5.00;3.23;;;28.50;99.90;;;;;;4993322;28;21054;-79
2022/06/24 12:55:33;;;;;;;4.10;3.30;;;28.50;99.90;;;;;;4991641;28;20424;-80
2022/06/24 12:58:00;;;;;;;4.93;3.50;;;28.70;99.90;;;;;;4995007;28;20851;-78
2022/06/24 13:00:27;;;;;;;3.40;2.70;;;28.70;99.90;;;;;;5011193;28;20436;-78
2022/06/24 13:02:55;;;;;;;5.17;3.80;;;28.30;99.90;;;;;;5005874;28;20926;-79
2022/06/24 13:05:23;;;;;;;4.20;3.57;;;28.00;99.90;;;;;;4991895;28;20429;-79
2022/06/24 13:07:50;;;;;;;5.97;3.90;;;28.10;99.90;;;;;;4991320;28;20540;-80
2022/06/24 13:10:16;;;;;;;4.43;3.60;;;28.30;99.90;;;;;;4991528;28;20424;-79
2022/06/24 13:12:42;;;;;;;4.77;3.47;;;28.10;99.90;;;;;;4992016;28;20433;-78
2022/06/24 13:15:10;;;;;;;5.90;3.80;;;27.90;99.90;;;;;;4991361;28;20198;-78